Terminal Aerodrome Forecast
Issued by NWS

Home | Current Version | Previous Version | Text Only | Print | Product List | Glossary On
Versions: 1 2 3 4 5 6 7 8 9 10 11 12 13
000
FTUS41 KAKQ 211700
TAFPHF
TAF
KPHF 211729Z 2118/2218 05005KT P6SM BKN070
     FM220600 06004KT P6SM OVC100
     FM221100 05005KT 5SM -RA BR OVC040
     FM221400 06010KT 3SM -RA BR OVC015=

USA.gov is the U.S. government's official web portal to all federal, state and local government web resources and services.